Etusivu
METAR-TAF:

METAR-TAF

Lentoasemat :

Jinotega, Nicaragua

Leveyspiiri: 13-05N, Pituuspiiri: 085-59W, korkeus merenpinnasta: 985 m

Tämänhetkinen sää

Tämä raportti tehtiin 42 minuuttia sitten, kello 14.00 UTC
Tuuli 10 kn pohjoisesta
Lämpötila 18°C
Kosteus 83%
Ilmanpaine 1013 hPa
Näkyvyys 10 km tai enemmän
Hajanaisia pilviä 1800 ft:n korkeudessa

METAR: MNJG 171400Z 36010KT 9999 SCT018 18/15 Q1013

Aika: 08:42 (14:42 UTC)


TAF: puuttuu

Säähavainnot ja -ennusteet yli 4000 lentoasemalta (METAR- ja TAF-raportit).

Käytössä olevat sääasemat on merkitty karttaan keltaisilla ja punaisilla pisteillä.

Aseta hiiri pisteen päälle nähdäksesi sääaseman nimen.

Klikkaa sitten nähdäksesi säähavainnot ja -ennusteet.

Kartan vaihtaminen: klikkaa mustalla rastilla varustettuja vihreitä pisteitä, niin voit zoomata sisään; viivalla varustettua vihreää pistettä, niin voit zoomata ulos tai vihreitä nuolia, niin pääset viereisille kartoille.


METAR-TAF: